Time;durP1;ratioP1;P1;durP2;ratioP2;P2;SDS_P1;SDS_P2;PMS_P1;PMS_P2;Temp;Humidity;BMP_temperature;BMP_pressure;BME280_temperature;BME280_humidity;BME280_pressure;Samples;Min_cycle;Max_cycle;Signal;HPM_P1;HPM_P2
2021/11/16 00:09:25;;;;;;;23.67;9.87;;;5.80;99.90;;;;;;21004021;28;20028;-84
2021/11/16 00:19:27;;;;;;;20.50;9.40;;;5.80;99.90;;;;;;21017599;28;20048;-79
2021/11/16 00:29:31;;;;;;;26.65;10.70;;;5.60;99.90;;;;;;21048031;28;20043;-82
2021/11/16 00:39:32;;;;;;;24.80;10.88;;;5.50;99.90;;;;;;21019397;28;20067;-81
2021/11/16 00:49:33;;;;;;;25.70;10.83;;;5.40;99.90;;;;;;21043494;28;20032;-79
2021/11/16 00:59:34;;;;;;;22.03;10.07;;;5.50;99.90;;;;;;21023706;28;20486;-79
2021/11/16 01:09:35;;;;;;;29.33;11.00;;;5.50;99.90;;;;;;21040908;28;20037;-82
2021/11/16 01:19:36;;;;;;;22.55;10.00;;;5.40;99.90;;;;;;21040030;28;20290;-82
2021/11/16 01:29:38;;;;;;;;;;;5.40;99.90;;;;;;21029795;28;20565;-81
2021/11/16 01:39:39;;;;;;;20.67;10.23;;;5.50;99.90;;;;;;21032988;28;20000;-78
2021/11/16 01:49:41;;;;;;;22.77;9.90;;;5.40;99.90;;;;;;21050674;28;20274;-81
2021/11/16 01:59:42;;;;;;;25.98;12.07;;;5.40;99.90;;;;;;21053783;28;20287;-79
2021/11/16 02:09:43;;;;;;;27.80;11.40;;;5.30;99.90;;;;;;21053402;28;20497;-81
2021/11/16 02:19:45;;;;;;;27.42;11.73;;;5.30;99.90;;;;;;21049532;28;20040;-80
2021/11/16 02:29:46;;;;;;;31.88;11.63;;;5.30;99.90;;;;;;21045900;28;20043;-80
2021/11/16 02:39:47;;;;;;;36.93;12.17;;;5.30;99.90;;;;;;21029387;28;20037;-80
2021/11/16 02:49:48;;;;;;;34.85;12.23;;;5.20;99.90;;;;;;21050167;28;20035;-80
2021/11/16 02:59:49;;;;;;;27.08;11.82;;;5.20;99.90;;;;;;21050941;28;20025;-81
2021/11/16 03:09:51;;;;;;;32.70;11.73;;;5.20;99.90;;;;;;21049398;28;20561;-81
2021/11/16 03:19:52;;;;;;;27.42;10.65;;;5.20;99.90;;;;;;21027655;28;20040;-81
2021/11/16 03:29:57;;;;;;;;;;;5.20;99.90;;;;;;21038187;22;20032;-77
2021/11/16 03:39:58;;;;;;;32.85;12.65;;;5.20;99.90;;;;;;20987458;28;19928;-77
2021/11/16 03:49:59;;;;;;;30.73;11.48;;;5.20;99.90;;;;;;20910189;28;20025;-77
2021/11/16 04:00:00;;;;;;;31.53;11.17;;;5.30;99.90;;;;;;20909940;28;20036;-77
2021/11/16 04:10:04;;;;;;;27.58;11.32;;;5.40;99.90;;;;;;20909341;28;20279;-77
2021/11/16 04:20:21;;;;;;;26.50;10.80;;;5.30;99.90;;;;;;20908708;28;20066;-77
2021/11/16 04:30:24;;;;;;;24.88;11.77;;;5.30;99.90;;;;;;20873721;28;20114;-77
2021/11/16 04:40:34;;;;;;;25.67;10.80;;;5.30;99.90;;;;;;20909330;28;20055;-77
2021/11/16 04:51:04;;;;;;;27.90;11.20;;;5.30;99.90;;;;;;20907185;28;20040;-77
2021/11/16 05:11:20;;;;;;;32.25;11.40;;;5.30;99.90;;;;;;20900260;28;20029;-74
2021/11/16 05:21:21;;;;;;;25.13;10.95;;;5.40;99.90;;;;;;20921876;28;20040;-75
2021/11/16 05:31:22;;;;;;;26.30;10.23;;;5.40;99.90;;;;;;20921463;28;20039;-75
2021/11/16 05:41:22;;;;;;;26.33;11.65;;;5.30;99.90;;;;;;20920687;28;20296;-74
2021/11/16 05:51:26;;;;;;;27.03;12.10;;;5.30;99.90;;;;;;20920206;28;20031;-75
2021/11/16 06:01:30;;;;;;;32.28;13.90;;;5.30;99.90;;;;;;20919211;28;20040;-74
2021/11/16 06:11:32;;;;;;;30.75;12.10;;;5.40;99.90;;;;;;20900106;28;20123;-75
2021/11/16 06:21:33;;;;;;;28.00;12.30;;;5.40;99.90;;;;;;20914947;28;20728;-77
2021/11/16 06:31:35;;;;;;;30.65;12.40;;;5.40;99.90;;;;;;20907328;28;20028;-76
2021/11/16 06:41:37;;;;;;;31.58;11.32;;;5.40;99.90;;;;;;20903081;28;20624;-76
2021/11/16 06:51:40;;;;;;;26.92;11.18;;;5.30;99.90;;;;;;20897550;28;20087;-77
2021/11/16 07:01:41;;;;;;;26.30;12.02;;;5.40;99.90;;;;;;20914651;28;20029;-77
2021/11/16 07:11:45;;;;;;;31.03;12.27;;;5.40;99.90;;;;;;20881526;28;20024;-76
2021/11/16 07:21:48;;;;;;;35.53;14.00;;;5.40;99.90;;;;;;20834697;28;20662;-76
2021/11/16 07:31:56;;;;;;;29.40;12.60;;;5.40;99.90;;;;;;20812104;28;20044;-76
2021/11/16 07:42:04;;;;;;;30.42;12.00;;;5.40;99.90;;;;;;20855047;28;20036;-76
2021/11/16 07:52:07;;;;;;;34.20;11.57;;;5.40;99.90;;;;;;20876234;28;20029;-76
2021/11/16 08:02:18;;;;;;;28.55;12.88;;;5.50;99.90;;;;;;20910104;28;20491;-76
2021/11/16 08:12:26;;;;;;;32.80;13.48;;;5.60;99.90;;;;;;20909450;28;20503;-76
2021/11/16 08:22:27;;;;;;;27.30;11.38;;;5.70;99.90;;;;;;20908702;28;20071;-76
2021/11/16 08:32:36;;;;;;;30.10;13.98;;;5.80;99.90;;;;;;20873722;28;20040;-76
2021/11/16 08:42:40;;;;;;;33.80;14.05;;;5.90;99.90;;;;;;20889866;28;20064;-76
2021/11/16 08:52:41;;;;;;;38.38;15.40;;;5.90;99.90;;;;;;20907336;28;20037;-76
2021/11/16 09:02:42;;;;;;;30.03;13.33;;;5.90;99.90;;;;;;20907131;28;20031;-76
2021/11/16 09:12:50;;;;;;;29.37;12.47;;;6.00;99.90;;;;;;20890260;28;20025;-77
2021/11/16 09:22:54;;;;;;;26.00;12.15;;;5.90;99.90;;;;;;20906248;28;20071;-76
2021/11/16 09:33:05;;;;;;;22.73;10.50;;;6.10;99.90;;;;;;20939471;23;20045;-81
2021/11/16 09:43:06;;;;;;;18.83;8.80;;;6.30;99.90;;;;;;20904238;28;20592;-84
2021/11/16 09:53:15;;;;;;;19.10;7.38;;;6.50;99.90;;;;;;20932730;28;20049;-84
2021/11/16 10:03:20;;;;;;;16.73;8.00;;;6.50;99.90;;;;;;20899804;28;20044;-83
2021/11/16 10:13:30;;;;;;;18.75;8.05;;;6.50;99.90;;;;;;20909555;28;20045;-83
2021/11/16 10:23:41;;;;;;;17.17;7.60;;;6.60;99.90;;;;;;20885321;28;20403;-83
2021/11/16 10:33:46;;;;;;;17.07;8.13;;;6.70;99.90;;;;;;20897045;28;20044;-84
2021/11/16 10:43:57;;;;;;;17.42;7.93;;;6.70;99.90;;;;;;20918031;28;20124;-83
2021/11/16 10:53:59;;;;;;;17.17;7.23;;;6.80;99.90;;;;;;20930686;28;20537;-84
2021/11/16 11:04:00;;;;;;;14.45;7.45;;;6.90;99.90;;;;;;20911806;28;20025;-84
2021/11/16 11:14:12;;;;;;;12.50;6.75;;;6.80;99.90;;;;;;20911950;28;20102;-83
2021/11/16 11:24:23;;;;;;;17.52;7.45;;;6.90;99.90;;;;;;20916359;28;20033;-81
2021/11/16 11:34:39;;;;;;;19.20;7.47;;;7.10;99.90;;;;;;20887350;28;20029;-84
2021/11/16 11:44:58;;;;;;;16.23;7.72;;;7.00;99.90;;;;;;20923806;28;20029;-83
2021/11/16 11:54:59;;;;;;;16.35;7.88;;;7.00;99.90;;;;;;20900349;28;20040;-83
2021/11/16 12:05:00;;;;;;;14.77;7.10;;;6.80;99.90;;;;;;20843362;28;20119;-80
2021/11/16 12:15:04;;;;;;;16.33;6.60;;;7.00;99.90;;;;;;20803944;28;20727;-81
2021/11/16 12:25:22;;;;;;;14.30;7.00;;;6.90;99.90;;;;;;20822677;28;20053;-82
2021/11/16 12:35:23;;;;;;;12.70;7.15;;;6.90;99.90;;;;;;20805475;28;20036;-83
2021/11/16 12:45:37;;;;;;;17.52;8.10;;;6.90;99.90;;;;;;20806952;28;20107;-83
2021/11/16 12:55:38;;;;;;;16.63;6.72;;;6.90;99.90;;;;;;20874902;28;20114;-84
2021/11/16 13:05:43;;;;;;;21.77;8.33;;;6.90;99.90;;;;;;20870967;28;20033;-82
2021/11/16 13:15:47;;;;;;;18.00;8.68;;;6.80;99.90;;;;;;20839166;28;20036;-83
2021/11/16 13:25:54;;;;;;;15.68;7.32;;;6.70;99.90;;;;;;20889370;28;20027;-84
2021/11/16 13:36:06;;;;;;;17.88;8.00;;;6.80;99.90;;;;;;20875222;28;20076;-83
2021/11/16 13:46:14;;;;;;;10.60;5.68;;;6.80;99.90;;;;;;20874048;28;20036;-78
2021/11/16 13:56:15;;;;;;;13.77;6.47;;;6.80;99.90;;;;;;20891006;28;20021;-81
2021/11/16 14:06:20;;;;;;;12.18;4.97;;;6.90;99.90;;;;;;20866103;28;20095;-80
2021/11/16 14:16:29;;;;;;;10.70;5.70;;;6.80;99.90;;;;;;20914118;28;20033;-82
2021/11/16 14:26:32;;;;;;;9.57;5.35;;;6.80;99.90;;;;;;20870787;28;20040;-79
2021/11/16 14:36:42;;;;;;;11.65;5.75;;;6.70;99.90;;;;;;20859234;28;20055;-78
2021/11/16 14:46:51;;;;;;;14.18;6.47;;;6.80;99.90;;;;;;20853538;28;20034;-78
2021/11/16 14:56:52;;;;;;;13.73;5.88;;;6.60;99.90;;;;;;20856708;28;20530;-78
2021/11/16 15:07:05;;;;;;;11.80;5.93;;;6.60;99.90;;;;;;20895518;28;20033;-79
2021/11/16 15:17:07;;;;;;;10.38;5.47;;;6.40;99.90;;;;;;20887410;28;20025;-79
2021/11/16 15:27:12;;;;;;;10.45;5.32;;;6.50;99.90;;;;;;20875151;28;20041;-79
2021/11/16 15:37:13;;;;;;;9.38;5.18;;;6.50;99.90;;;;;;20944602;23;20436;-78
2021/11/16 15:57:27;;;;;;;9.50;4.50;;;6.50;99.90;;;;;;20827426;28;20686;-78
2021/11/16 16:07:28;;;;;;;8.90;4.90;;;6.50;99.90;;;;;;20824157;28;20037;-78
2021/11/16 16:17:32;;;;;;;9.13;5.23;;;6.30;99.90;;;;;;20820061;28;20127;-78
2021/11/16 16:27:34;;;;;;;9.10;4.90;;;6.30;99.90;;;;;;20816022;28;20026;-78
2021/11/16 16:37:34;;;;;;;10.30;5.35;;;6.30;99.90;;;;;;20817626;28;20029;-78
2021/11/16 16:47:35;;;;;;;20.10;8.57;;;6.30;99.90;;;;;;20818874;28;20025;-78
2021/11/16 16:57:38;;;;;;;8.48;4.38;;;6.40;99.90;;;;;;20798708;28;20219;-78
2021/11/16 17:07:39;;;;;;;7.35;4.00;;;6.30;99.90;;;;;;20832802;28;20487;-79
2021/11/16 17:17:41;;;;;;;10.40;5.05;;;6.30;99.90;;;;;;20854294;28;20040;-78
2021/11/16 17:27:42;;;;;;;8.15;4.15;;;6.20;99.90;;;;;;20866855;28;20025;-78
2021/11/16 17:37:43;;;;;;;10.20;4.50;;;6.20;99.90;;;;;;20856846;28;20026;-80
2021/11/16 17:47:44;;;;;;;;;;;6.10;99.90;;;;;;20852685;28;20034;-79
2021/11/16 17:57:45;;;;;;;9.27;4.72;;;6.00;99.90;;;;;;20848848;28;19960;-79
2021/11/16 18:07:58;;;;;;;7.93;4.40;;;6.10;99.90;;;;;;20863895;28;20089;-79
2021/11/16 18:18:00;;;;;;;9.82;4.90;;;6.10;99.90;;;;;;20867949;28;20538;-79
2021/11/16 18:28:01;;;;;;;9.35;4.53;;;6.30;99.90;;;;;;20870896;28;20048;-79
2021/11/16 18:38:02;;;;;;;16.07;6.93;;;6.30;99.90;;;;;;20866597;28;20025;-79
2021/11/16 18:48:07;;;;;;;;;;;6.30;99.90;;;;;;20855257;28;20018;-79
2021/11/16 18:58:08;;;;;;;18.17;8.90;;;6.10;99.90;;;;;;20842449;28;19917;-78
2021/11/16 19:08:09;;;;;;;16.83;8.20;;;6.10;99.90;;;;;;20847419;28;20431;-79
2021/11/16 19:18:14;;;;;;;17.90;9.30;;;6.10;99.90;;;;;;20828395;28;20018;-79
2021/11/16 19:38:44;;;;;;;25.40;9.88;;;6.00;99.90;;;;;;20856192;28;20034;-79
2021/11/16 19:48:44;;;;;;;18.95;8.77;;;6.00;99.90;;;;;;20819518;28;20032;-77
2021/11/16 19:58:45;;;;;;;18.17;8.03;;;5.90;99.90;;;;;;20816429;28;20041;-78
2021/11/16 20:08:47;;;;;;;19.33;11.40;;;5.90;99.90;;;;;;20819320;28;20036;-78
2021/11/16 20:18:48;;;;;;;19.67;10.00;;;5.80;99.90;;;;;;20831759;28;20055;-78
2021/11/16 20:28:57;;;;;;;17.80;8.80;;;5.70;99.90;;;;;;20861861;28;20041;-79
2021/11/16 20:59:36;;;;;;;22.15;11.00;;;5.70;99.90;;;;;;20869994;28;20119;-78
2021/11/16 21:09:37;;;;;;;31.00;12.90;;;5.70;99.90;;;;;;20839849;28;20099;-78
2021/11/16 21:19:40;;;;;;;29.40;12.85;;;5.60;99.90;;;;;;20858729;28;20041;-79
2021/11/16 21:29:42;;;;;;;37.03;14.63;;;5.60;99.90;;;;;;20866069;28;20117;-80
2021/11/16 21:39:43;;;;;;;40.53;16.17;;;5.60;99.90;;;;;;20922159;23;20041;-78
2021/11/16 21:49:44;;;;;;;37.13;16.63;;;5.60;99.90;;;;;;20934399;28;20034;-78
2021/11/16 21:59:45;;;;;;;44.63;16.70;;;5.50;99.90;;;;;;20912300;28;20036;-78
2021/11/16 22:09:45;;;;;;;34.97;15.57;;;5.50;99.90;;;;;;20843897;28;20033;-78
2021/11/16 22:19:47;;;;;;;36.50;16.10;;;5.50;99.90;;;;;;20849700;28;20036;-77
2021/11/16 22:29:50;;;;;;;32.17;13.45;;;5.60;99.90;;;;;;20857637;28;20040;-79
2021/11/16 22:39:51;;;;;;;40.40;15.95;;;5.60;99.90;;;;;;20861274;28;20033;-78
2021/11/16 22:49:52;;;;;;;46.87;17.53;;;5.50;99.90;;;;;;20852541;28;20609;-78
